createdAt,value
2019-05-22T10:14:15.791Z,96.73
2019-05-22T10:19:25.374Z,96.49
2019-05-22T10:24:30.982Z,96.65
2019-05-22T10:29:36.827Z,96.66
2019-05-22T10:34:43.251Z,97.43
2019-05-22T10:39:49.074Z,94.59
2019-05-22T10:44:55.795Z,93.89
2019-05-22T10:50:01.260Z,93.27
2019-05-22T10:55:08.252Z,94.43
2019-05-22T11:00:16.346Z,93.90
2019-05-22T11:05:23.294Z,93.60
2019-05-22T11:10:29.300Z,94.17
2019-05-22T11:15:36.552Z,94.60
2019-05-22T11:20:43.345Z,93.70
2019-05-22T11:25:53.235Z,95.99
2019-05-22T11:31:04.505Z,95.93
2019-05-22T11:36:12.031Z,96.16
2019-05-22T11:41:20.562Z,95.72
2019-05-22T11:46:26.116Z,96.11
2019-05-22T11:51:31.636Z,95.67
2019-05-22T11:56:46.563Z,95.62
2019-05-22T12:01:52.396Z,96.61
2019-05-22T12:06:57.948Z,95.59
2019-05-22T12:12:08.110Z,94.72
2019-05-22T12:17:16.523Z,95.15
2019-05-22T12:22:22.282Z,95.49
2019-05-22T12:27:27.604Z,94.92
2019-05-22T12:32:33.195Z,95.44
2019-05-22T12:37:38.984Z,94.83
2019-05-22T12:42:45.290Z,95.91
2019-05-22T12:47:55.899Z,93.47
2019-05-22T12:53:06.367Z,94.64
2019-05-22T12:58:11.761Z,95.12
2019-05-22T13:03:20.168Z,95.36
2019-05-22T13:08:27.473Z,95.77
2019-05-22T13:13:33.666Z,96.00
2019-05-22T13:18:44.253Z,95.44
2019-05-22T13:23:52.558Z,95.80
2019-05-22T13:28:58.585Z,95.87
2019-05-22T13:34:04.879Z,95.84
2019-05-22T13:39:11.915Z,96.40
2019-05-22T13:44:21.117Z,96.90
2019-05-22T13:49:32.823Z,97.21
2019-05-22T13:54:40.462Z,97.81
2019-05-22T13:59:46.423Z,97.28
2019-05-22T14:04:52.974Z,97.17
2019-05-22T14:09:59.760Z,97.89
2019-05-22T14:15:05.995Z,97.97
2019-05-22T14:20:12.218Z,97.63
2019-05-22T14:25:20.587Z,97.74
2019-05-22T14:30:28.113Z,98.04
2019-05-22T14:35:47.583Z,98.07
2019-05-22T14:40:44.360Z,97.71
2019-05-22T14:45:50.150Z,97.62
2019-05-22T14:50:56.694Z,97.57
2019-05-22T14:56:03.750Z,97.39
2019-05-22T15:01:09.879Z,97.65
2019-05-22T15:06:16.359Z,97.01
2019-05-22T15:11:22.420Z,96.76
2019-05-22T15:16:30.061Z,96.75
2019-05-22T15:21:36.259Z,97.45
2019-05-22T15:26:42.159Z,97.92
2019-05-22T15:31:48.439Z,97.72
2019-05-22T15:36:54.314Z,98.05
2019-05-22T15:42:09.272Z,98.02
2019-05-22T15:47:15.158Z,96.61
2019-05-22T15:52:23.976Z,96.92
2019-05-22T15:57:36.639Z,96.76
2019-05-22T16:02:44.512Z,97.46
2019-05-22T16:07:52.622Z,97.28
2019-05-22T16:13:00.186Z,97.03
2019-05-22T16:18:12.040Z,97.58
2019-05-22T16:23:16.332Z,97.88
2019-05-22T16:28:30.950Z,97.59
2019-05-22T16:33:35.877Z,97.43
2019-05-22T16:38:42.685Z,98.10
2019-05-22T16:43:50.656Z,97.84
2019-05-22T16:48:57.784Z,96.82
2019-05-22T16:54:09.687Z,96.85
2019-05-22T16:59:16.757Z,96.92
2019-05-22T17:04:22.633Z,97.20
2019-05-22T17:09:28.489Z,97.68
2019-05-22T17:14:40.415Z,98.14
2019-05-22T17:19:49.067Z,97.18
2019-05-22T17:24:54.918Z,97.96
2019-05-22T17:30:02.382Z,98.34
2019-05-22T17:35:10.998Z,97.87
2019-05-22T17:40:20.823Z,98.01
2019-05-22T17:45:31.300Z,98.06
2019-05-22T17:50:37.394Z,98.31
2019-05-22T17:55:42.814Z,98.21
2019-05-22T18:00:51.444Z,98.38
2019-05-22T18:05:57.273Z,98.32
2019-05-22T18:11:09.148Z,98.03
2019-05-22T18:16:16.895Z,98.36
2019-05-22T18:21:24.130Z,98.72
2019-05-22T18:26:30.734Z,98.34
2019-05-22T18:31:36.590Z,98.41
2019-05-22T18:36:43.104Z,98.45
2019-05-22T18:41:48.520Z,98.62
2019-05-22T18:46:53.832Z,98.33
2019-05-22T18:52:00.922Z,98.40
2019-05-22T18:57:06.797Z,98.62
2019-05-22T19:02:13.568Z,98.80
2019-05-22T19:07:18.872Z,99.18
2019-05-22T19:12:24.806Z,99.37
2019-05-22T19:17:30.885Z,100.00
2019-05-22T19:22:36.183Z,99.52
2019-05-22T19:27:42.075Z,99.45
2019-05-22T19:32:47.534Z,99.62
2019-05-22T19:37:53.833Z,100.00
2019-05-22T19:42:59.146Z,99.93
2019-05-22T19:48:05.812Z,98.98
2019-05-22T19:53:18.930Z,99.18
2019-05-22T19:58:22.004Z,99.21
2019-05-22T20:03:28.615Z,98.65
2019-05-22T20:08:36.341Z,98.68
2019-05-22T20:13:41.216Z,98.46
2019-05-22T20:18:47.327Z,98.03
2019-05-22T20:23:54.080Z,98.90
2019-05-22T20:29:00.289Z,98.74
2019-05-22T20:34:06.289Z,98.66
2019-05-22T20:39:13.971Z,98.66
2019-05-22T20:44:20.315Z,98.91
2019-05-22T20:49:26.563Z,98.83
2019-05-22T20:54:32.752Z,98.29
2019-05-22T20:59:38.975Z,98.18
2019-05-22T21:04:45.789Z,97.81
2019-05-22T21:09:52.318Z,97.57
2019-05-22T21:14:59.388Z,97.29
2019-05-22T21:20:06.123Z,96.39
2019-05-22T21:25:12.431Z,96.90
2019-05-22T21:30:19.428Z,96.28
2019-05-22T21:35:24.950Z,95.42
2019-05-22T21:40:30.669Z,95.70
2019-05-22T21:45:36.759Z,95.50
2019-05-22T21:50:42.291Z,94.68
2019-05-22T21:56:03.375Z,94.23
2019-05-22T22:01:26.432Z,94.42
2019-05-22T22:06:33.356Z,94.13
2019-05-22T22:11:39.748Z,94.66
2019-05-22T22:16:46.968Z,94.92
2019-05-22T22:21:52.603Z,94.56
2019-05-22T22:26:59.007Z,94.02
2019-05-22T22:32:06.234Z,94.49
2019-05-22T22:37:11.947Z,94.37
2019-05-22T22:42:19.277Z,94.19
2019-05-22T22:47:37.712Z,93.34
2019-05-22T22:52:45.095Z,93.92
2019-05-22T22:57:52.212Z,92.78
2019-05-22T23:02:59.930Z,92.57
2019-05-22T23:08:06.301Z,92.86
2019-05-22T23:13:12.117Z,92.89
2019-05-22T23:18:49.839Z,92.33
2019-05-22T23:23:53.694Z,92.50
2019-05-22T23:28:59.071Z,92.97
2019-05-22T23:34:05.648Z,93.95
2019-05-22T23:39:12.924Z,93.28
2019-05-22T23:44:23.518Z,93.53
2019-05-22T23:49:30.252Z,93.23
2019-05-22T23:54:36.324Z,93.88
2019-05-22T23:59:44.802Z,92.92
